Portada
METAR-TAF:

METAR-TAF

Aeroports :

Aeroport Albano Machado

Huambo, Angola

latitud: 12-48-32S, longitud: 015-45-38E, altitud: 1710 m

Observació

L'informe es va fer fa 8 hores i 58 minuts, a les 15:00 UTC
Vent 5 kt del Est
Temperatura 26°C
Humitat 32%
Pressió 1022 hPa
Visibilitat 10 km o més
sense núvols per sota de 1500 mi sense presència de cumulonimbus.

METAR: FNHU 291500Z 08005KT CAVOK 26/08 Q1022

Hora: 00:58 (23:58 UTC)

Pronòstic

L'informe es va fer fa 58 minuts, a les 23:00 UTC
Pronòstic vàlid del 30 a les 00 UTC al 30 a les 12 UTC
Vent 4 kt del Est/Sud-Est
Visibilitat 10 km o més
Cel ennuvolat a una alçada de 5000 ft
Evolucionant progressivament
l' 30 a les 10 UTC al 30 a les 12 UTC
Vent 8 kt del Est/Nord-Est
Visibilitat: 9000 m

TAF: FNHU 292300Z 3000/3012 11004KT 9999 BKN050 BECMG 3010/3012 06008KT 9000 NSC

Observacions i pronòstics meteorològics de més de 4000 aeroports (METAR i TAF).

Les estacions disponibles són els punts grocs i vermells al mapa.

Posi el ratolí al punt desitjat per veure el nom de l'estació.

Feu clic per veure les observacions i els pronòstics meteorològics.

Per canviar el mapa: feu clic els botons verds amb una creu de color negre per apropar; al botó verd amb un guió per allunyar la imatge; o en les fletxes verdes per a mapes adjacents.


METAR-TAF: